Time;durP1;ratioP1;P1;durP2;ratioP2;P2;SDS_P1;SDS_P2;PMS_P1;PMS_P2;Temp;Humidity;BMP_temperature;BMP_pressure;BME280_temperature;BME280_humidity;BME280_pressure;Samples;Min_cycle;Max_cycle;Signal;HPM_P1;HPM_P2
2023/06/29 00:02:19;;;;;;;18.17;11.35;;;;;;;21.55;100.00;101699.84;4985837;28;20046;-61
2023/06/29 00:04:44;;;;;;;17.85;11.98;;;;;;;21.55;100.00;101691.81;4984041;28;20414;-62
2023/06/29 00:07:10;;;;;;;19.10;11.98;;;;;;;21.65;100.00;101694.72;4983748;28;20076;-60
2023/06/29 00:09:35;;;;;;;21.08;12.27;;;;;;;21.61;100.00;101691.38;4984127;28;20431;-60
2023/06/29 00:12:00;;;;;;;16.80;12.50;;;;;;;21.58;100.00;101699.63;4983454;28;20039;-62
2023/06/29 00:14:26;;;;;;;19.00;11.77;;;;;;;21.55;100.00;101705.22;5051614;28;20022;-62
2023/06/29 00:16:51;;;;;;;22.25;13.25;;;;;;;21.51;100.00;101698.31;4984838;28;20048;-62
2023/06/29 00:19:20;;;;;;;23.33;13.32;;;;;;;21.51;100.00;101699.19;4985173;28;20106;-61
2023/06/29 00:21:47;;;;;;;21.10;13.88;;;;;;;21.54;100.00;101701.66;4987381;28;20023;-63
2023/06/29 00:24:13;;;;;;;19.10;13.30;;;;;;;21.55;100.00;101700.69;4987020;28;20043;-62
2023/06/29 00:26:39;;;;;;;21.98;13.57;;;;;;;21.53;100.00;101697.28;4987167;28;20079;-61
2023/06/29 00:29:05;;;;;;;21.30;13.70;;;;;;;21.55;100.00;101694.47;4988105;28;20050;-60
2023/06/29 00:31:30;;;;;;;23.52;14.38;;;;;;;21.51;100.00;101690.28;4987317;28;20520;-60
2023/06/29 00:33:55;;;;;;;26.08;14.60;;;;;;;21.52;100.00;101689.31;4987246;28;20575;-62
2023/06/29 00:36:21;;;;;;;19.35;13.95;;;;;;;21.52;100.00;101678.59;4987702;28;20065;-63
2023/06/29 00:38:46;;;;;;;21.50;13.30;;;;;;;21.53;100.00;101675.81;4987545;28;20022;-62
2023/06/29 00:41:12;;;;;;;21.23;13.80;;;;;;;21.53;100.00;101674.94;4988524;28;20026;-62
2023/06/29 00:43:37;;;;;;;22.58;13.88;;;;;;;21.53;100.00;101674.94;5016303;28;20067;-62
2023/06/29 00:46:07;;;;;;;18.45;12.63;;;;;;;21.49;100.00;101674.28;5072858;28;20030;-61
2023/06/29 00:48:35;;;;;;;21.17;13.35;;;;;;;21.53;100.00;101674.94;5072887;28;20063;-61
2023/06/29 00:51:00;;;;;;;22.55;13.40;;;;;;;21.50;100.00;101675.16;5091073;28;20437;-63
2023/06/29 00:53:26;;;;;;;24.10;14.73;;;;;;;21.52;100.00;101671.41;5065573;28;20022;-61
2023/06/29 00:55:52;;;;;;;25.08;14.13;;;;;;;21.46;100.00;101678.03;5054916;28;20037;-61
2023/06/29 00:58:17;;;;;;;22.58;14.13;;;;;;;21.54;100.00;101664.13;4987675;28;20031;-61
2023/06/29 01:00:42;;;;;;;22.77;13.73;;;;;;;21.53;100.00;101667.78;4986993;28;20022;-62
2023/06/29 01:03:11;;;;;;;20.25;13.95;;;;;;;21.48;100.00;101667.22;5054750;28;20022;-63
2023/06/29 01:05:36;;;;;;;24.50;15.32;;;;;;;21.46;100.00;101659.28;4988359;28;20097;-61
2023/06/29 01:08:06;;;;;;;28.13;16.08;;;;;;;21.44;100.00;101657.66;5038143;28;20057;-65
2023/06/29 01:10:32;;;;;;;22.50;15.02;;;;;;;21.44;100.00;101650.50;5072883;28;20099;-62
2023/06/29 01:12:59;;;;;;;22.58;15.88;;;;;;;21.40;100.00;101656.16;4986538;28;20037;-61
2023/06/29 01:15:25;;;;;;;22.45;14.32;;;;;;;21.40;100.00;101646.28;5055874;28;20027;-63
2023/06/29 01:17:52;;;;;;;26.20;16.08;;;;;;;21.44;100.00;101655.84;4987678;28;20046;-63
2023/06/29 01:20:18;;;;;;;26.48;14.80;;;;;;;21.43;100.00;101659.47;5054719;28;20022;-62
2023/06/29 01:22:55;;;;;;;22.67;15.18;;;;;;;21.41;100.00;101652.50;5054134;28;20046;-62
2023/06/29 01:25:21;;;;;;;23.15;14.57;;;;;;;21.41;100.00;101652.50;4986858;28;20543;-62
2023/06/29 01:27:47;;;;;;;24.23;15.52;;;;;;;21.39;100.00;101649.06;5058868;23;20046;-62
2023/06/29 01:30:13;;;;;;;24.33;14.48;;;;;;;21.39;100.00;101651.75;5026426;28;20532;-62
2023/06/29 01:32:39;;;;;;;23.50;15.00;;;;;;;21.38;100.00;101647.34;5027730;28;20083;-60
2023/06/29 01:35:09;;;;;;;20.25;13.73;;;;;;;21.38;100.00;101642.88;5029734;28;20061;-61
2023/06/29 01:37:47;;;;;;;19.38;13.55;;;;;;;21.30;100.00;101638.00;5029990;28;20489;-62
2023/06/29 01:40:19;;;;;;;24.40;15.45;;;;;;;21.17;100.00;101637.09;5029516;28;20032;-60
2023/06/29 01:42:45;;;;;;;23.17;13.45;;;;;;;21.19;100.00;101637.88;5029392;28;20084;-60
2023/06/29 01:45:12;;;;;;;26.20;15.20;;;;;;;21.29;100.00;101630.06;5012773;28;20029;-62
2023/06/29 01:47:38;;;;;;;22.42;14.98;;;;;;;21.29;100.00;101630.94;5029749;28;20079;-61
2023/06/29 01:50:03;;;;;;;24.38;15.48;;;;;;;21.24;100.00;101625.00;5012195;28;20021;-62
2023/06/29 01:52:29;;;;;;;20.50;14.98;;;;;;;21.24;100.00;101622.34;5019551;28;20076;-61
2023/06/29 01:54:54;;;;;;;24.63;15.25;;;;;;;21.23;100.00;101622.44;5049219;28;20047;-62
2023/06/29 01:57:20;;;;;;;24.83;14.20;;;;;;;21.26;100.00;101625.78;5049488;28;20029;-62
2023/06/29 01:59:46;;;;;;;22.30;14.30;;;;;;;21.28;100.00;101621.16;5050526;28;20070;-62
2023/06/29 02:02:11;;;;;;;24.70;14.88;;;;;;;21.26;100.00;101623.09;5042206;28;20465;-63
2023/06/29 02:04:37;;;;;;;24.13;15.15;;;;;;;21.28;100.00;101623.00;5029351;28;20036;-62
2023/06/29 02:07:02;;;;;;;31.90;16.27;;;;;;;21.21;100.00;101610.00;5029283;28;20021;-61
2023/06/29 02:09:28;;;;;;;28.40;16.08;;;;;;;21.12;100.00;101607.94;5029087;28;20071;-62
2023/06/29 02:11:53;;;;;;;25.48;15.05;;;;;;;21.10;100.00;101603.66;5028057;28;20381;-62
2023/06/29 02:14:18;;;;;;;24.10;15.77;;;;;;;21.06;100.00;101611.91;5037932;28;20079;-62
2023/06/29 02:16:45;;;;;;;27.58;16.92;;;;;;;21.04;100.00;101615.66;5048964;28;20088;-62
2023/06/29 02:19:11;;;;;;;27.63;15.77;;;;;;;21.01;100.00;101610.47;5048207;28;20496;-62
2023/06/29 02:21:36;;;;;;;30.52;16.90;;;;;;;20.99;100.00;101607.03;5030460;28;20032;-61
2023/06/29 02:24:01;;;;;;;27.02;15.98;;;;;;;21.00;100.00;101611.44;5047639;28;20100;-61
2023/06/29 02:26:27;;;;;;;26.00;16.13;;;;;;;21.01;100.00;101599.78;5048536;28;20029;-62
2023/06/29 02:28:52;;;;;;;24.67;16.15;;;;;;;20.97;100.00;101601.78;5048110;28;20606;-62
2023/06/29 02:31:18;;;;;;;28.55;16.90;;;;;;;21.03;100.00;101589.78;5047960;28;20029;-61
2023/06/29 02:33:44;;;;;;;27.17;16.55;;;;;;;21.05;100.00;101594.09;5041106;28;20029;-61
2023/06/29 02:36:10;;;;;;;23.95;14.32;;;;;;;21.05;100.00;101585.19;5028071;28;20022;-65
2023/06/29 02:38:35;;;;;;;23.42;15.18;;;;;;;21.04;100.00;101588.84;5027749;28;20067;-61
2023/06/29 02:41:01;;;;;;;30.13;15.38;;;;;;;21.07;100.00;101588.66;5027436;28;20037;-62
2023/06/29 02:43:26;;;;;;;27.55;15.70;;;;;;;21.08;100.00;101579.63;5008120;28;20037;-63
2023/06/29 02:45:51;;;;;;;31.75;16.85;;;;;;;21.09;100.00;101586.72;5008353;28;20029;-61
2023/06/29 02:48:17;;;;;;;26.35;16.08;;;;;;;21.10;100.00;101577.69;5009410;28;20034;-61
2023/06/29 02:50:42;;;;;;;27.50;17.35;;;;;;;21.19;100.00;101576.25;5036783;28;20020;-61
2023/06/29 02:53:08;;;;;;;25.08;17.15;;;;;;;21.06;100.00;101571.72;5047700;28;20036;-62
2023/06/29 02:55:33;;;;;;;24.23;15.80;;;;;;;21.10;100.00;101575.03;5048470;28;20079;-63
2023/06/29 02:57:58;;;;;;;27.92;18.17;;;;;;;21.07;100.00;101569.91;5045948;28;20068;-62
2023/06/29 03:00:24;;;;;;;27.45;16.63;;;;;;;21.11;100.00;101576.75;5048624;28;20021;-63
2023/06/29 03:02:50;;;;;;;32.95;17.92;;;;;;;21.10;100.00;101580.38;5047934;28;20318;-62
2023/06/29 03:05:15;;;;;;;27.33;17.63;;;;;;;21.07;100.00;101572.56;5046891;28;20052;-62
2023/06/29 03:07:41;;;;;;;25.85;18.05;;;;;;;21.07;100.00;101572.56;5047811;28;20068;-62
2023/06/29 03:10:06;;;;;;;33.35;18.83;;;;;;;21.07;100.00;101565.38;5029011;28;20020;-66
2023/06/29 03:12:32;;;;;;;32.90;20.40;;;;;;;21.06;100.00;101563.66;5048000;28;20580;-61
2023/06/29 03:14:57;;;;;;;34.97;20.13;;;;;;;21.04;100.00;101562.91;5047090;28;20032;-63
2023/06/29 03:17:24;;;;;;;29.73;18.23;;;;;;;21.02;100.00;101562.16;5047863;28;20112;-62
2023/06/29 03:19:49;;;;;;;33.30;19.48;;;;;;;21.00;100.00;101556.03;5047863;28;20101;-62
2023/06/29 03:22:15;;;;;;;30.40;19.27;;;;;;;21.05;100.00;101555.72;5046890;28;20108;-61
2023/06/29 03:24:40;;;;;;;34.50;20.48;;;;;;;21.00;100.00;101549.81;5047070;28;20025;-60
2023/06/29 03:27:06;;;;;;;31.95;20.35;;;;;;;21.05;100.00;101547.69;5046757;28;20650;-61
2023/06/29 03:29:32;;;;;;;35.00;20.33;;;;;;;21.06;100.00;101544.91;5046352;28;20044;-61
2023/06/29 03:31:59;;;;;;;29.63;18.25;;;;;;;21.10;100.00;101548.22;5047298;28;20063;-62
2023/06/29 03:34:25;;;;;;;33.78;20.25;;;;;;;21.08;100.00;101544.81;5047018;28;20155;-62
2023/06/29 03:36:50;;;;;;;35.10;21.05;;;;;;;21.08;100.00;101542.13;5048215;28;20604;-61
2023/06/29 03:39:16;;;;;;;35.38;21.02;;;;;;;21.12;100.00;101548.13;5046026;28;20031;-62
2023/06/29 03:41:41;;;;;;;31.27;20.52;;;;;;;21.10;100.00;101542.03;5043528;28;20444;-62
2023/06/29 03:44:07;;;;;;;34.05;19.52;;;;;;;21.09;100.00;101541.16;5026527;28;20060;-60
2023/06/29 03:46:32;;;;;;;36.92;22.05;;;;;;;21.05;100.00;101539.66;5027735;28;20029;-63
2023/06/29 03:48:57;;;;;;;35.60;20.42;;;;;;;21.05;100.00;101542.34;5041262;28;20037;-61
2023/06/29 03:51:23;;;;;;;32.20;20.73;;;;;;;21.08;100.00;101534.94;5047388;28;20048;-61
2023/06/29 03:53:48;;;;;;;29.95;19.90;;;;;;;21.12;100.00;101540.97;5046083;28;20021;-66
2023/06/29 03:56:13;;;;;;;35.10;21.00;;;;;;;21.13;100.00;101541.81;5047754;28;20028;-62
2023/06/29 03:58:39;;;;;;;31.13;20.90;;;;;;;21.08;100.00;101539.44;5047323;28;20445;-62
2023/06/29 04:01:04;;;;;;;32.08;20.25;;;;;;;21.17;100.00;101548.69;5034703;28;20052;-61
2023/06/29 04:03:30;;;;;;;33.13;20.33;;;;;;;21.04;100.00;101540.63;5027984;28;20075;-61
2023/06/29 04:05:55;;;;;;;27.38;18.60;;;;;;;21.15;100.00;101532.72;5026264;28;20021;-61
2023/06/29 04:08:21;;;;;;;34.00;20.55;;;;;;;21.17;100.00;101536.16;5027269;28;20035;-62
2023/06/29 04:10:46;;;;;;;31.02;19.50;;;;;;;21.14;100.00;101531.00;5026542;28;20031;-60
2023/06/29 04:13:11;;;;;;;29.88;19.15;;;;;;;21.18;100.00;101537.88;5042994;28;20056;-60
2023/06/29 04:15:37;;;;;;;29.23;18.95;;;;;;;21.16;100.00;101526.38;5037476;28;20022;-61
2023/06/29 04:18:02;;;;;;;31.73;19.77;;;;;;;21.12;100.00;101524.00;5027886;28;20104;-61
2023/06/29 04:20:28;;;;;;;30.13;18.38;;;;;;;21.15;100.00;101532.72;5027698;28;20101;-61
2023/06/29 04:22:55;;;;;;;25.92;18.58;;;;;;;21.18;100.00;101534.31;5018720;28;20463;-60
2023/06/29 04:25:20;;;;;;;31.27;19.30;;;;;;;21.21;100.00;101542.16;5019539;28;20393;-63
2023/06/29 04:27:46;;;;;;;29.00;18.45;;;;;;;21.12;100.00;101537.41;5008426;28;20030;-61
2023/06/29 04:30:11;;;;;;;28.00;18.85;;;;;;;21.18;100.00;101535.19;5017725;28;20036;-60
2023/06/29 04:32:37;;;;;;;30.52;16.92;;;;;;;21.16;100.00;101533.59;5044989;28;20112;-62
2023/06/29 04:35:03;;;;;;;30.65;19.88;;;;;;;21.16;100.00;101537.09;5018579;28;20022;-62
2023/06/29 04:37:36;;;;;;;27.92;19.33;;;;;;;21.23;100.00;101539.38;5026727;28;20045;-63
2023/06/29 04:40:04;;;;;;;30.40;18.75;;;;;;;21.25;100.00;101534.78;5027132;28;20029;-61
2023/06/29 04:42:30;;;;;;;29.45;17.02;;;;;;;21.24;100.00;101535.72;5009553;28;20115;-61
2023/06/29 04:44:55;;;;;;;24.73;16.92;;;;;;;21.24;100.00;101530.34;5027401;28;20022;-62
2023/06/29 04:47:21;;;;;;;26.40;17.25;;;;;;;21.24;100.00;101530.34;5027373;28;20025;-62
2023/06/29 04:49:51;;;;;;;28.95;17.38;;;;;;;21.27;100.00;101525.66;5027332;28;20466;-61
2023/06/29 04:52:18;;;;;;;29.67;16.95;;;;;;;21.03;100.00;101525.50;5014767;28;20125;-62
2023/06/29 04:54:44;;;;;;;26.60;17.15;;;;;;;21.23;100.00;101520.59;5026927;28;20029;-60
2023/06/29 04:57:12;;;;;;;27.98;16.80;;;;;;;21.25;100.00;101522.22;5027029;28;20440;-61
2023/06/29 04:59:37;;;;;;;23.92;16.08;;;;;;;21.34;100.00;101521.59;5027408;28;20422;-60
2023/06/29 05:02:03;;;;;;;23.35;16.08;;;;;;;21.23;100.00;101534.00;5026874;28;20045;-61
2023/06/29 05:04:29;;;;;;;23.63;16.27;;;;;;;21.36;100.00;101528.66;5013646;28;20117;-60
2023/06/29 05:06:54;;;;;;;25.42;15.77;;;;;;;21.50;100.00;101522.34;5028935;28;20101;-61
2023/06/29 05:09:20;;;;;;;24.50;15.55;;;;;;;21.46;100.00;101535.97;5030615;28;20037;-62
2023/06/29 05:11:45;;;;;;;28.23;18.02;;;;;;;21.36;100.00;101524.16;5038550;28;20036;-61
2023/06/29 05:14:10;;;;;;;24.80;15.70;;;;;;;21.46;100.00;101525.22;5041291;28;20055;-61
2023/06/29 05:16:36;;;;;;;28.70;16.52;;;;;;;21.39;100.00;101523.06;5030737;28;20087;-61
2023/06/29 05:19:01;;;;;;;26.98;16.73;;;;;;;21.42;100.00;101528.22;5030088;28;20029;-61
2023/06/29 05:21:28;;;;;;;28.08;17.20;;;;;;;21.43;100.00;101525.44;5028970;28;20045;-61
2023/06/29 05:23:54;;;;;;;27.05;18.15;;;;;;;21.49;100.00;101516.09;5029301;28;20033;-62
2023/06/29 05:26:19;;;;;;;26.52;18.08;;;;;;;21.36;100.00;101515.25;5029728;28;20481;-63
2023/06/29 05:28:44;;;;;;;28.50;17.13;;;;;;;21.37;100.00;101514.31;5030463;28;20144;-60
2023/06/29 05:31:10;;;;;;;27.70;17.85;;;;;;;21.42;100.00;101514.81;5048945;28;20060;-62
2023/06/29 05:33:35;;;;;;;29.02;18.00;;;;;;;21.46;100.00;101508.28;5030499;28;20025;-62
2023/06/29 05:36:01;;;;;;;27.83;17.48;;;;;;;21.50;100.00;101514.28;5029138;28;20625;-61
2023/06/29 05:38:29;;;;;;;30.08;18.98;;;;;;;21.60;100.00;101515.38;5028464;28;20039;-62
2023/06/29 05:40:54;;;;;;;28.35;18.65;;;;;;;21.68;100.00;101517.50;5039156;28;20022;-61
2023/06/29 05:43:24;;;;;;;31.85;19.95;;;;;;;21.81;100.00;101517.53;5029039;28;20038;-61
2023/06/29 05:45:49;;;;;;;28.65;20.33;;;;;;;21.84;100.00;101520.00;5027444;28;20225;-60
2023/06/29 05:48:14;;;;;;;37.13;21.45;;;;;;;21.86;100.00;101520.75;5028316;28;20072;-60
2023/06/29 05:50:40;;;;;;;29.90;20.25;;;;;;;21.93;100.00;101522.03;5028516;28;20037;-61
2023/06/29 05:53:05;;;;;;;32.78;19.83;;;;;;;21.88;100.00;101510.75;5024924;28;20141;-61
2023/06/29 05:55:30;;;;;;;36.17;20.95;;;;;;;21.86;100.00;101512.69;5028881;28;20079;-60
2023/06/29 05:57:56;;;;;;;33.80;22.20;;;;;;;21.86;100.00;101520.75;5027098;28;20036;-61
2023/06/29 06:00:22;;;;;;;33.58;21.55;;;;;;;21.92;100.00;101519.44;5027883;28;20036;-64
2023/06/29 06:02:47;;;;;;;37.55;23.02;;;;;;;21.79;100.00;101522.16;5026907;28;20029;-62
2023/06/29 06:05:12;;;;;;;33.83;22.65;;;;;;;21.78;100.00;101525.78;5026019;28;20025;-64
2023/06/29 06:07:38;;;;;;;39.28;23.33;;;;;;;21.61;100.00;101521.59;5026951;28;20033;-62
2023/06/29 06:10:04;;;;;;;41.95;23.75;;;;;;;21.68;100.00;101526.44;5026541;28;20025;-61
2023/06/29 06:12:29;;;;;;;40.58;24.75;;;;;;;21.69;100.00;101529.94;5026689;28;20049;-62
2023/06/29 06:14:55;;;;;;;41.45;24.23;;;;;;;21.68;100.00;101530.91;5029028;28;20152;-66
2023/06/29 06:17:20;;;;;;;40.05;24.83;;;;;;;21.71;100.00;101525.34;5027071;28;20049;-63
2023/06/29 06:19:46;;;;;;;40.35;25.38;;;;;;;21.81;100.00;101517.53;5026972;28;20108;-62
2023/06/29 06:22:11;;;;;;;41.03;25.15;;;;;;;21.95;100.00;101520.06;5026941;28;20462;-64
2023/06/29 06:24:36;;;;;;;42.60;25.55;;;;;;;21.95;100.00;101520.06;5025598;28;20209;-62
2023/06/29 06:27:02;;;;;;;40.70;25.08;;;;;;;22.09;100.00;101510.16;5026154;28;20535;-62
2023/06/29 06:29:28;;;;;;;44.38;26.13;;;;;;;22.18;100.00;101517.53;5027194;28;20473;-65
2023/06/29 06:31:54;;;;;;;42.42;25.10;;;;;;;22.25;100.00;101517.09;5027020;28;20025;-60
2023/06/29 06:34:19;;;;;;;44.53;26.05;;;;;;;22.20;100.00;101515.63;5024509;28;20060;-62
2023/06/29 06:36:46;;;;;;;40.50;24.30;;;;;;;22.08;100.00;101511.13;5026548;28;20095;-61
2023/06/29 06:39:11;;;;;;;45.03;25.73;;;;;;;22.13;100.00;101519.72;5026898;28;20521;-61
2023/06/29 06:41:37;;;;;;;41.92;24.65;;;;;;;22.13;100.00;101519.72;5028121;28;20061;-61
2023/06/29 06:44:02;;;;;;;47.42;26.90;;;;;;;22.18;100.00;101522.03;5026561;28;20044;-61
2023/06/29 06:46:27;;;;;;;45.90;26.85;;;;;;;22.49;100.00;101514.44;5008960;28;20030;-62
2023/06/29 06:48:53;;;;;;;42.40;25.63;;;;;;;22.69;100.00;101512.09;5017720;28;20048;-61
2023/06/29 06:51:18;;;;;;;40.33;25.95;;;;;;;22.82;100.00;101512.88;5025728;28;20029;-62
2023/06/29 06:53:43;;;;;;;45.53;26.73;;;;;;;22.88;100.00;101511.59;5026542;28;20469;-62
2023/06/29 06:56:09;;;;;;;43.85;26.58;;;;;;;22.91;100.00;101514.03;5026168;28;20025;-61
2023/06/29 06:58:34;;;;;;;43.70;26.48;;;;;;;22.95;100.00;101512.84;5026391;28;20026;-61
2023/06/29 07:01:00;;;;;;;43.83;26.90;;;;;;;22.77;100.00;101517.78;5025291;28;20049;-61
2023/06/29 07:03:25;;;;;;;35.45;24.38;;;;;;;22.65;100.00;101516.88;5026124;28;20040;-64
2023/06/29 07:05:53;;;;;;;48.95;26.42;;;;;;;22.75;100.00;101522.41;5020028;28;20579;-62
2023/06/29 07:08:19;;;;;;;43.40;26.90;;;;;;;22.61;100.00;101515.38;5026722;28;20087;-62
2023/06/29 07:10:44;;;;;;;44.63;26.48;;;;;;;22.77;100.00;101520.47;5025624;28;20026;-63
2023/06/29 07:13:11;;;;;;;42.47;27.42;;;;;;;22.68;100.00;101513.97;5026208;28;20601;-60
2023/06/29 07:15:36;;;;;;;43.08;26.70;;;;;;;22.82;100.00;101518.25;5026044;28;20025;-62
2023/06/29 07:18:01;;;;;;;47.30;27.88;;;;;;;22.97;100.00;101516.25;5025584;28;20025;-63
2023/06/29 07:20:27;;;;;;;45.85;26.67;;;;;;;23.03;100.00;101514.06;5027481;28;20029;-62
2023/06/29 07:22:52;;;;;;;44.80;27.23;;;;;;;23.12;100.00;101513.38;5023622;28;20048;-62
2023/06/29 07:25:18;;;;;;;44.42;27.65;;;;;;;23.35;100.00;101513.41;5009368;28;20370;-61
2023/06/29 07:27:44;;;;;;;43.17;28.02;;;;;;;23.55;100.00;101513.69;5026301;28;20045;-61
2023/06/29 07:30:10;;;;;;;42.22;25.92;;;;;;;23.67;100.00;101510.06;5026325;28;20045;-61
2023/06/29 07:32:35;;;;;;;42.90;25.42;;;;;;;23.42;100.00;101514.66;5027066;28;20075;-63
2023/06/29 07:35:01;;;;;;;39.88;25.98;;;;;;;23.49;100.00;101506.97;5027020;28;20026;-62
2023/06/29 07:37:26;;;;;;;45.28;26.08;;;;;;;23.60;100.00;101512.34;5026746;28;20116;-61
2023/06/29 07:39:51;;;;;;;38.20;24.48;;;;;;;23.79;100.00;101515.41;5027398;28;20033;-61
2023/06/29 07:42:17;;;;;;;38.88;25.27;;;;;;;23.90;100.00;101501.94;5026821;28;20048;-61
2023/06/29 07:44:42;;;;;;;40.70;26.58;;;;;;;24.08;100.00;101498.78;5027188;28;20125;-64
2023/06/29 07:47:08;;;;;;;38.55;25.23;;;;;;;24.10;100.00;101497.66;5027159;28;20030;-61
2023/06/29 07:49:33;;;;;;;42.72;26.58;;;;;;;24.16;100.00;101499.00;5027004;28;20458;-63
2023/06/29 07:51:58;;;;;;;40.40;27.52;;;;;;;24.11;100.00;101504.75;5026090;28;20037;-62
2023/06/29 07:54:24;;;;;;;45.33;27.13;;;;;;;24.06;100.00;101498.88;5025816;28;20052;-61
2023/06/29 07:56:49;;;;;;;41.33;25.40;;;;;;;24.09;100.00;101503.16;5027035;28;20029;-61
2023/06/29 07:59:15;;;;;;;43.88;27.50;;;;;;;23.94;100.00;101500.75;5024741;28;20025;-62
2023/06/29 08:01:40;;;;;;;42.53;25.90;;;;;;;24.06;100.00;101492.63;5024678;28;20491;-61
2023/06/29 08:04:08;;;;;;;40.95;26.02;;;;;;;24.06;100.00;101495.34;5024157;28;20080;-61
2023/06/29 08:06:34;;;;;;;38.13;24.85;;;;;;;24.27;100.00;101490.06;5024294;28;20389;-62
2023/06/29 08:09:00;;;;;;;39.92;25.17;;;;;;;24.49;100.00;101490.97;5005359;28;20040;-61
2023/06/29 08:11:26;;;;;;;43.13;24.02;;;;;;;24.66;100.00;101494.09;5024712;28;20053;-64
2023/06/29 08:13:51;;;;;;;32.95;22.85;;;;;;;24.94;100.00;101483.69;5024085;28;20105;-63
2023/06/29 08:16:17;;;;;;;35.10;23.23;;;;;;;25.13;100.00;101484.81;5025213;28;20520;-62
2023/06/29 08:18:42;;;;;;;32.17;21.58;;;;;;;25.21;100.00;101490.38;5025354;28;20033;-62
2023/06/29 08:21:10;;;;;;;37.75;23.50;;;;;;;24.70;100.00;101491.00;5007808;28;20022;-62
2023/06/29 08:23:35;;;;;;;31.65;22.15;;;;;;;25.06;100.00;101488.03;5025464;28;20056;-60
2023/06/29 08:26:01;;;;;;;38.97;23.13;;;;;;;25.30;100.00;101486.03;5026040;28;20080;-62
2023/06/29 08:28:26;;;;;;;35.05;22.13;;;;;;;25.55;100.00;101482.03;5024880;28;20077;-62
2023/06/29 08:30:52;;;;;;;32.63;21.45;;;;;;;25.25;100.00;101489.13;5026452;28;20124;-60
2023/06/29 08:33:17;;;;;;;32.42;20.98;;;;;;;25.33;100.00;101483.06;5024411;28;20029;-61
2023/06/29 08:35:43;;;;;;;31.02;21.85;;;;;;;25.34;100.00;101482.94;5025252;28;20026;-63
2023/06/29 08:38:09;;;;;;;32.92;20.33;;;;;;;25.14;100.00;101473.88;5023829;28;20021;-60
2023/06/29 08:40:35;;;;;;;30.63;19.98;;;;;;;25.19;100.00;101473.50;5026770;28;20389;-62
2023/06/29 08:43:01;;;;;;;32.00;21.33;;;;;;;24.94;100.00;101468.38;5029689;28;20025;-62
2023/06/29 08:45:26;;;;;;;29.83;21.10;;;;;;;24.86;100.00;101460.91;5028925;28;20435;-66
2023/06/29 08:47:53;;;;;;;34.25;20.40;;;;;;;24.89;100.00;101469.75;5030679;28;20029;-61
2023/06/29 08:50:21;;;;;;;29.35;19.55;;;;;;;25.02;100.00;101475.81;5030828;28;20079;-61
2023/06/29 08:52:47;;;;;;;;;;;;;;;24.95;100.00;101480.03;5012252;28;20013;-63
2023/06/29 08:55:12;;;;;;;31.35;20.65;;;;;;;25.04;100.00;101473.81;5010939;28;19932;-61
2023/06/29 08:57:38;;;;;;;36.40;19.92;;;;;;;24.79;100.00;101480.41;5028380;28;20026;-62
2023/06/29 09:00:04;;;;;;;28.20;19.05;;;;;;;25.07;100.00;101472.72;5029098;28;20385;-61
2023/06/29 09:02:30;;;;;;;28.10;18.58;;;;;;;24.85;100.00;101480.75;5029536;28;20041;-60
2023/06/29 09:04:56;;;;;;;32.53;19.80;;;;;;;24.47;100.00;101476.78;5010313;28;20044;-64
2023/06/29 09:07:21;;;;;;;33.90;20.27;;;;;;;24.80;100.00;101482.16;5029140;28;20496;-62
2023/06/29 09:09:47;;;;;;;34.17;20.05;;;;;;;24.86;100.00;101484.28;5029109;28;20052;-68
2023/06/29 09:12:12;;;;;;;26.60;18.98;;;;;;;24.74;100.00;101483.50;5028676;28;20056;-63
2023/06/29 09:14:44;;;;;;;34.28;20.55;;;;;;;24.91;100.00;101479.41;5011262;28;20359;-61
2023/06/29 09:17:18;;;;;;;28.58;19.58;;;;;;;25.17;100.00;101486.25;5010636;28;20037;-61
2023/06/29 09:19:54;;;;;;;28.27;19.48;;;;;;;25.35;100.00;101481.09;5027368;28;20053;-62
2023/06/29 09:22:21;;;;;;;24.88;19.08;;;;;;;25.48;100.00;101489.81;5027089;28;20036;-62
2023/06/29 09:24:50;;;;;;;32.90;20.45;;;;;;;25.48;100.00;101494.34;5027332;28;20021;-62
2023/06/29 09:27:16;;;;;;;28.75;19.63;;;;;;;25.51;100.00;101490.53;5011661;28;20025;-63
2023/06/29 09:29:50;;;;;;;34.58;21.45;;;;;;;25.39;100.00;101485.22;5027678;28;20067;-65
2023/06/29 09:32:15;;;;;;;30.38;20.80;;;;;;;25.11;100.00;101487.63;5027123;28;20037;-65
2023/06/29 09:34:45;;;;;;;31.88;21.42;;;;;;;25.23;100.00;101483.03;5029040;28;20040;-63
2023/06/29 09:37:13;;;;;;;30.70;21.50;;;;;;;25.06;100.00;101493.41;5025286;28;20421;-64
2023/06/29 09:39:38;;;;;;;32.85;20.52;;;;;;;25.22;100.00;101486.69;5029141;28;20052;-59
2023/06/29 09:42:05;;;;;;;29.25;20.42;;;;;;;25.68;100.00;101480.97;5027182;28;20689;-60
2023/06/29 09:44:30;;;;;;;30.23;20.98;;;;;;;25.97;99.36;101489.16;5009244;28;20114;-62
2023/06/29 09:47:05;;;;;;;32.88;20.08;;;;;;;26.20;98.19;101480.84;5018767;28;20072;-61
2023/06/29 09:49:32;;;;;;;30.25;18.73;;;;;;;26.44;97.51;101478.75;5027771;28;20033;-61
2023/06/29 09:52:04;;;;;;;28.83;18.42;;;;;;;26.68;96.45;101467.50;5007691;28;20017;-62
2023/06/29 09:54:35;;;;;;;24.83;17.75;;;;;;;27.08;93.64;101467.47;5023896;28;20025;-64
2023/06/29 09:57:02;;;;;;;31.30;18.67;;;;;;;26.87;93.15;101472.03;5027304;28;20056;-66
2023/06/29 09:59:41;;;;;;;25.35;16.38;;;;;;;27.01;93.80;101478.03;5024223;28;20100;-62
2023/06/29 10:02:08;;;;;;;23.58;14.88;;;;;;;26.47;95.10;101475.75;5026176;28;20516;-61
2023/06/29 10:04:34;;;;;;;20.73;14.02;;;;;;;26.30;94.98;101480.00;5027291;28;20022;-63
2023/06/29 10:07:08;;;;;;;18.60;13.23;;;;;;;26.00;97.15;101474.53;5025342;28;20032;-68
2023/06/29 10:09:38;;;;;;;20.25;12.18;;;;;;;26.27;96.06;101481.09;5027550;28;20112;-61
2023/06/29 10:12:04;;;;;;;17.17;12.68;;;;;;;26.30;94.39;101470.06;5028311;28;20121;-63
2023/06/29 10:14:30;;;;;;;24.52;13.88;;;;;;;26.12;95.48;101468.03;4993573;28;20030;-62
2023/06/29 10:16:55;;;;;;;17.65;13.18;;;;;;;26.05;96.34;101471.41;5013176;28;20079;-61
2023/06/29 10:19:22;;;;;;;19.77;12.85;;;;;;;25.95;95.32;101474.09;5011878;28;20448;-62
2023/06/29 10:21:52;;;;;;;19.90;11.90;;;;;;;25.73;96.39;101478.72;5009811;28;20037;-63
2023/06/29 10:24:22;;;;;;;18.73;11.55;;;;;;;25.73;97.45;101484.97;5029535;28;20025;-60
2023/06/29 10:26:48;;;;;;;15.63;10.05;;;;;;;25.60;97.03;101487.06;5026404;28;20034;-61
2023/06/29 10:29:14;;;;;;;16.60;10.10;;;;;;;25.67;96.97;101472.03;5008397;28;20486;-61
2023/06/29 10:31:46;;;;;;;19.10;10.25;;;;;;;25.96;95.24;101479.38;5025481;28;20037;-64
2023/06/29 10:34:13;;;;;;;20.00;10.02;;;;;;;26.34;95.58;101484.16;5026150;28;20421;-61
2023/06/29 10:36:45;;;;;;;18.58;10.27;;;;;;;26.58;93.90;101482.88;5025342;28;20021;-63
2023/06/29 10:39:44;;;;;;;17.85;11.20;;;;;;;26.73;94.15;101476.03;5024985;28;20048;-63
2023/06/29 10:42:32;;;;;;;;;;;;;;;26.92;92.34;101471.59;5016051;28;20045;-60
2023/06/29 10:44:58;;;;;;;18.23;10.75;;;;;;;27.10;91.95;101477.16;5017393;28;20079;-60
2023/06/29 10:47:38;;;;;;;16.45;10.45;;;;;;;27.21;89.02;101468.00;5027519;28;20470;-63
2023/06/29 10:50:43;;;;;;;16.65;10.48;;;;;;;27.63;87.17;101461.28;5020235;28;20125;-63
2023/06/29 10:53:10;;;;;;;14.25;9.80;;;;;;;27.66;85.99;101454.72;5010347;28;20043;-61
2023/06/29 10:55:40;;;;;;;16.07;10.13;;;;;;;27.53;87.55;101454.19;5026753;28;20419;-61
2023/06/29 10:58:17;;;;;;;16.13;9.82;;;;;;;27.81;87.40;101467.78;5027719;28;20284;-61
2023/06/29 11:00:43;;;;;;;13.85;9.98;;;;;;;27.85;87.09;101459.22;5024480;28;20266;-62